createdAt,value
2017-10-02T00:01:18.614Z,11.80
2017-10-02T00:03:46.179Z,11.70
2017-10-02T00:06:14.532Z,11.70
2017-10-02T00:08:42.127Z,11.60
2017-10-02T00:11:10.446Z,11.60
2017-10-02T00:13:38.034Z,11.60
2017-10-02T00:16:05.689Z,11.80
2017-10-02T00:18:33.274Z,11.70
2017-10-02T00:21:01.705Z,11.80
2017-10-02T00:23:29.280Z,11.70
2017-10-02T00:25:56.871Z,11.80
2017-10-02T00:28:24.441Z,11.70
2017-10-02T00:30:52.796Z,11.60
2017-10-02T00:33:20.355Z,11.60
2017-10-02T00:35:49.448Z,11.70
2017-10-02T00:38:17.787Z,11.60
2017-10-02T00:40:45.492Z,11.60
2017-10-02T00:43:13.894Z,11.80
2017-10-02T00:45:41.477Z,11.80
2017-10-02T00:48:09.077Z,11.70
2017-10-02T00:50:36.636Z,11.90
2017-10-02T00:53:05.777Z,11.90
2017-10-02T00:55:33.335Z,11.90
2017-10-02T00:58:00.899Z,12.10
2017-10-02T01:00:28.487Z,12.10
2017-10-02T01:02:56.067Z,11.80
2017-10-02T01:05:23.662Z,11.60
2017-10-02T01:07:51.219Z,11.60
2017-10-02T01:10:18.810Z,11.60
2017-10-02T01:12:46.379Z,11.70
2017-10-02T01:15:13.934Z,11.70
2017-10-02T01:17:41.525Z,11.60
2017-10-02T01:20:09.868Z,11.60
2017-10-02T01:22:37.455Z,11.60
2017-10-02T01:25:05.016Z,11.60
2017-10-02T01:27:33.391Z,11.60
2017-10-02T01:30:00.948Z,11.60
2017-10-02T01:32:28.548Z,11.60
2017-10-02T01:34:56.111Z,11.70
2017-10-02T01:37:23.675Z,11.60
2017-10-02T01:39:51.267Z,11.50
2017-10-02T01:42:18.855Z,11.60
2017-10-02T01:44:47.217Z,11.50
2017-10-02T01:47:15.577Z,11.40
2017-10-02T01:49:43.143Z,11.40
2017-10-02T01:52:10.839Z,11.40
2017-10-02T01:54:39.171Z,11.40
2017-10-02T01:57:06.726Z,11.30
2017-10-02T01:59:34.308Z,11.40
2017-10-02T02:02:01.873Z,11.30
2017-10-02T02:04:30.227Z,11.30
2017-10-02T02:06:57.793Z,11.30
2017-10-02T02:09:25.400Z,11.20
2017-10-02T02:11:52.947Z,11.30
2017-10-02T02:14:20.562Z,11.30
2017-10-02T02:16:48.130Z,11.20
2017-10-02T02:19:15.715Z,11.20
2017-10-02T02:21:44.055Z,11.10
2017-10-02T02:24:11.618Z,11.10
2017-10-02T02:26:39.319Z,11.10
2017-10-02T02:29:06.887Z,11.10
2017-10-02T02:31:34.476Z,11.00
2017-10-02T02:34:02.043Z,11.00
2017-10-02T02:36:29.734Z,11.00
2017-10-02T02:38:58.085Z,11.00
2017-10-02T02:41:25.663Z,11.00
2017-10-02T02:43:53.228Z,11.00
2017-10-02T02:46:21.580Z,11.10
2017-10-02T02:48:49.196Z,11.10
2017-10-02T02:51:16.757Z,11.20
2017-10-02T02:53:44.475Z,11.00
2017-10-02T02:56:12.039Z,11.00
2017-10-02T02:58:40.390Z,10.90
2017-10-02T03:01:07.988Z,10.90
2017-10-02T03:03:36.316Z,11.00
2017-10-02T03:06:03.908Z,11.00
2017-10-02T03:08:32.235Z,11.00
2017-10-02T03:10:59.846Z,11.00
2017-10-02T03:13:28.171Z,11.00
2017-10-02T03:15:55.728Z,11.00
2017-10-02T03:18:23.311Z,11.00
2017-10-02T03:20:50.867Z,10.80
2017-10-02T03:23:18.548Z,10.70
2017-10-02T03:25:46.119Z,10.70
2017-10-02T03:28:13.727Z,10.60
2017-10-02T03:30:41.308Z,10.70
2017-10-02T03:33:08.910Z,10.70
2017-10-02T03:35:36.471Z,10.60
2017-10-02T03:38:04.047Z,10.60
2017-10-02T03:40:31.635Z,10.60
2017-10-02T03:42:59.233Z,10.80
2017-10-02T03:45:27.586Z,11.00
2017-10-02T03:47:55.142Z,11.00
2017-10-02T03:50:22.731Z,10.80
2017-10-02T03:52:51.062Z,10.90
2017-10-02T03:55:18.667Z,10.90
2017-10-02T03:57:47.023Z,10.90
2017-10-02T04:00:14.639Z,10.90
2017-10-02T04:02:42.249Z,10.80
2017-10-02T04:05:09.818Z,10.60
2017-10-02T04:07:38.332Z,10.70
2017-10-02T04:10:05.966Z,10.70
2017-10-02T04:12:34.322Z,10.60
2017-10-02T04:15:01.892Z,10.50
2017-10-02T04:17:30.248Z,10.50
2017-10-02T04:19:57.818Z,10.50
2017-10-02T04:22:25.387Z,10.60
2017-10-02T04:24:53.754Z,10.60
2017-10-02T04:27:22.100Z,10.60
2017-10-02T04:29:49.679Z,10.60
2017-10-02T04:32:17.249Z,10.60
2017-10-02T04:34:45.607Z,10.60
2017-10-02T04:37:13.166Z,10.50
2017-10-02T04:39:40.867Z,10.50
2017-10-02T04:42:08.419Z,10.40
2017-10-02T04:44:36.780Z,10.40
2017-10-02T04:47:04.350Z,10.30
2017-10-02T04:49:32.675Z,10.40
2017-10-02T04:52:00.267Z,10.30
2017-10-02T04:54:28.606Z,10.60
2017-10-02T04:56:56.193Z,10.50
2017-10-02T04:59:23.759Z,10.60
2017-10-02T05:01:51.357Z,10.60
2017-10-02T05:04:18.924Z,10.60
2017-10-02T05:06:46.486Z,10.60
2017-10-02T05:09:14.075Z,10.60
2017-10-02T05:11:41.635Z,10.60
2017-10-02T05:14:09.231Z,10.50
2017-10-02T05:16:37.563Z,10.50
2017-10-02T05:19:05.150Z,10.50
2017-10-02T05:21:32.706Z,10.60
2017-10-02T05:24:00.295Z,10.70
2017-10-02T05:26:27.896Z,10.70
2017-10-02T05:28:55.557Z,10.70
2017-10-02T05:31:23.139Z,10.70
2017-10-02T05:33:50.699Z,10.70
2017-10-02T05:36:18.283Z,10.70
2017-10-02T05:38:46.727Z,10.80
2017-10-02T05:41:15.104Z,10.90
2017-10-02T05:43:43.499Z,11.20
2017-10-02T05:46:11.827Z,11.40
2017-10-02T05:48:39.427Z,11.40
2017-10-02T05:51:06.999Z,11.70
2017-10-02T05:53:35.375Z,12.00
2017-10-02T05:56:03.723Z,11.60
2017-10-02T05:58:31.335Z,11.60
2017-10-02T06:00:58.891Z,11.40
2017-10-02T06:03:26.462Z,11.30
2017-10-02T06:05:54.047Z,11.30
2017-10-02T06:08:21.602Z,11.50
2017-10-02T06:10:49.192Z,11.70
2017-10-02T06:13:16.764Z,12.00
2017-10-02T06:15:45.142Z,12.40
2017-10-02T06:18:13.472Z,12.50
2017-10-02T06:20:41.063Z,12.40
2017-10-02T06:23:08.627Z,12.50
2017-10-02T06:25:36.182Z,12.70
2017-10-02T06:28:03.779Z,12.80
2017-10-02T06:30:31.340Z,12.80
2017-10-02T06:32:58.952Z,12.90
2017-10-02T06:35:27.327Z,13.10
2017-10-02T06:37:54.899Z,13.00
2017-10-02T06:40:22.483Z,13.10
2017-10-02T06:42:50.055Z,13.10
2017-10-02T06:45:17.752Z,13.20
2017-10-02T06:47:45.306Z,13.20
2017-10-02T06:50:12.899Z,13.20
2017-10-02T06:52:41.251Z,13.20
2017-10-02T06:55:08.819Z,13.20
2017-10-02T06:57:36.403Z,13.10
2017-10-02T07:00:04.832Z,13.00
2017-10-02T07:02:32.543Z,13.00
2017-10-02T07:05:00.898Z,13.10
2017-10-02T07:07:28.487Z,13.10
2017-10-02T07:09:56.050Z,13.20
2017-10-02T07:12:23.650Z,13.30
2017-10-02T07:14:51.227Z,13.30
2017-10-02T07:17:18.819Z,13.30
2017-10-02T07:19:47.174Z,13.40
2017-10-02T07:22:14.774Z,13.40
2017-10-02T07:24:42.361Z,13.50
2017-10-02T07:27:09.943Z,13.40
2017-10-02T07:29:37.547Z,13.20
2017-10-02T07:32:05.107Z,13.10
2017-10-02T07:34:32.709Z,13.30
2017-10-02T07:37:00.316Z,13.40
2017-10-02T07:39:28.039Z,13.40
2017-10-02T07:41:55.600Z,13.30
2017-10-02T07:44:23.266Z,13.30
2017-10-02T07:46:50.926Z,13.30
2017-10-02T07:49:18.500Z,13.10
2017-10-02T07:51:46.869Z,13.20
2017-10-02T07:54:14.415Z,13.20
2017-10-02T07:56:42.806Z,13.00
2017-10-02T07:59:11.150Z,12.90
2017-10-02T08:01:38.723Z,12.90
2017-10-02T08:04:06.299Z,12.90
2017-10-02T08:06:34.691Z,12.80
2017-10-02T08:09:03.039Z,13.10
2017-10-02T08:11:31.370Z,13.00
2017-10-02T08:13:58.951Z,12.90
2017-10-02T08:16:26.523Z,13.10
2017-10-02T08:18:54.114Z,13.30
2017-10-02T08:21:22.469Z,14.20
2017-10-02T08:23:50.135Z,14.20
2017-10-02T08:26:17.727Z,14.20
2017-10-02T08:28:45.369Z,14.30
2017-10-02T08:31:13.884Z,14.20
2017-10-02T08:33:41.436Z,14.20
2017-10-02T08:36:09.031Z,14.40
2017-10-02T08:38:36.615Z,14.60
2017-10-02T08:41:04.184Z,14.80
2017-10-02T08:43:32.547Z,15.20
2017-10-02T08:46:00.134Z,15.20
2017-10-02T08:48:27.742Z,15.30
2017-10-02T08:50:55.306Z,15.30
2017-10-02T08:53:22.881Z,15.30
2017-10-02T08:55:50.442Z,15.40
2017-10-02T08:58:18.032Z,15.50
2017-10-02T09:00:45.608Z,15.60
2017-10-02T09:03:13.159Z,15.80
2017-10-02T09:05:40.816Z,15.90
2017-10-02T09:08:08.375Z,15.80
2017-10-02T09:10:36.040Z,15.70
2017-10-02T09:13:03.583Z,15.60
2017-10-02T09:15:31.149Z,15.90
2017-10-02T09:17:58.739Z,15.90
2017-10-02T09:20:26.308Z,15.90
2017-10-02T09:22:53.906Z,16.00
2017-10-02T09:25:22.235Z,16.10
2017-10-02T09:27:49.964Z,16.10
2017-10-02T09:30:17.568Z,16.10
2017-10-02T09:32:45.131Z,16.10
2017-10-02T09:35:13.519Z,16.20
2017-10-02T09:37:41.128Z,16.20
2017-10-02T09:40:08.695Z,16.20
2017-10-02T09:42:36.287Z,16.10
2017-10-02T09:45:04.635Z,16.00
2017-10-02T09:47:32.200Z,16.00
2017-10-02T09:49:59.800Z,16.00
2017-10-02T09:52:28.103Z,16.20
2017-10-02T09:54:55.695Z,16.10
2017-10-02T09:57:23.273Z,16.10
2017-10-02T09:59:50.873Z,16.10
2017-10-02T10:02:18.427Z,16.00
2017-10-02T10:04:46.027Z,15.80
2017-10-02T10:07:13.596Z,15.70
2017-10-02T10:09:41.170Z,15.70
2017-10-02T10:12:08.759Z,15.70
2017-10-02T10:14:37.091Z,15.80
2017-10-02T10:17:04.692Z,15.80
2017-10-02T10:19:33.056Z,15.80
2017-10-02T10:22:01.431Z,15.80
2017-10-02T10:24:29.762Z,15.80
2017-10-02T10:26:57.339Z,15.80
2017-10-02T10:29:24.944Z,15.90
2017-10-02T10:31:52.518Z,15.90
2017-10-02T10:34:20.091Z,16.00
2017-10-02T10:36:47.673Z,16.00
2017-10-02T10:39:15.274Z,15.90
2017-10-02T10:41:43.625Z,16.00
2017-10-02T10:44:11.235Z,16.00
2017-10-02T10:46:38.955Z,16.10
2017-10-02T10:49:06.519Z,16.10
2017-10-02T10:51:34.863Z,16.10
2017-10-02T10:54:02.463Z,16.10
2017-10-02T10:56:30.795Z,16.30
2017-10-02T10:58:58.394Z,16.30
2017-10-02T11:01:26.730Z,16.40
2017-10-02T11:03:54.339Z,16.40
2017-10-02T11:06:22.051Z,16.40
2017-10-02T11:08:49.626Z,16.40
2017-10-02T11:11:17.228Z,16.50
2017-10-02T11:13:44.787Z,16.60
2017-10-02T11:16:12.379Z,16.60
2017-10-02T11:18:40.221Z,16.70
2017-10-02T11:21:07.931Z,16.90
2017-10-02T11:23:35.538Z,16.80
2017-10-02T11:26:03.170Z,16.90
2017-10-02T11:28:31.647Z,16.90
2017-10-02T11:31:00.033Z,17.10
2017-10-02T11:33:28.396Z,17.20
2017-10-02T11:35:56.718Z,17.30
2017-10-02T11:38:24.323Z,17.30
2017-10-02T11:40:51.927Z,17.60
2017-10-02T11:43:19.492Z,17.60
2017-10-02T11:45:47.088Z,17.70
2017-10-02T11:48:15.407Z,17.50
2017-10-02T11:50:43.108Z,17.40
2017-10-02T11:53:10.703Z,17.70
2017-10-02T11:55:38.335Z,17.60
2017-10-02T11:58:05.914Z,17.60
2017-10-02T12:00:33.517Z,17.40
2017-10-02T12:03:01.111Z,17.50
2017-10-02T12:05:28.736Z,17.50
2017-10-02T12:07:56.575Z,17.60
2017-10-02T12:10:24.931Z,17.80
2017-10-02T12:12:52.639Z,17.80
2017-10-02T12:15:20.272Z,17.90
2017-10-02T12:17:48.736Z,18.00
2017-10-02T12:20:16.302Z,18.00
2017-10-02T12:22:44.747Z,18.00
2017-10-02T12:25:12.300Z,18.00
2017-10-02T12:27:39.886Z,18.00
2017-10-02T12:30:07.459Z,18.10
2017-10-02T12:32:35.810Z,18.30
2017-10-02T12:35:03.367Z,18.30
2017-10-02T12:37:31.761Z,18.40
2017-10-02T12:39:59.327Z,18.40
2017-10-02T12:42:27.655Z,18.40
2017-10-02T12:44:55.271Z,18.40
2017-10-02T12:47:23.615Z,18.20
2017-10-02T12:49:51.229Z,18.20
2017-10-02T12:52:18.799Z,18.20
2017-10-02T12:54:46.384Z,18.30
2017-10-02T12:57:13.950Z,18.40
2017-10-02T12:59:41.540Z,18.40
2017-10-02T13:02:09.902Z,18.40
2017-10-02T13:04:37.459Z,18.40
2017-10-02T13:07:05.059Z,18.50
2017-10-02T13:09:32.639Z,18.60
2017-10-02T13:12:00.227Z,18.60
2017-10-02T13:14:27.820Z,18.70
2017-10-02T13:16:56.179Z,18.70
2017-10-02T13:19:24.629Z,18.70
2017-10-02T13:21:52.194Z,18.70
2017-10-02T13:24:19.781Z,18.60
2017-10-02T13:26:48.197Z,18.60
2017-10-02T13:29:15.752Z,18.60
2017-10-02T13:31:43.370Z,18.60
2017-10-02T13:34:11.692Z,18.60
2017-10-02T13:36:39.332Z,18.60
2017-10-02T13:39:06.923Z,18.50
2017-10-02T13:41:34.512Z,18.60
2017-10-02T13:44:02.110Z,18.70
2017-10-02T13:46:29.760Z,18.80
2017-10-02T13:48:58.120Z,18.80
2017-10-02T13:51:26.450Z,18.80
2017-10-02T13:53:54.012Z,18.80
2017-10-02T13:56:21.603Z,18.70
2017-10-02T13:58:49.169Z,18.70
2017-10-02T14:01:17.535Z,18.70
2017-10-02T14:03:45.103Z,18.60
2017-10-02T14:06:12.727Z,18.80
2017-10-02T14:08:40.284Z,18.80
2017-10-02T14:11:07.849Z,18.80
2017-10-02T14:13:35.456Z,18.60
2017-10-02T14:16:03.828Z,18.50
2017-10-02T14:18:32.188Z,18.50
2017-10-02T14:20:59.795Z,18.50
2017-10-02T14:23:27.380Z,18.50
2017-10-02T14:25:54.971Z,18.50
2017-10-02T14:28:23.315Z,18.70
2017-10-02T14:30:50.905Z,18.60
2017-10-02T14:33:18.505Z,18.60
2017-10-02T14:35:46.163Z,18.50
2017-10-02T14:38:13.748Z,18.60
2017-10-02T14:40:41.313Z,18.70
2017-10-02T14:43:08.912Z,18.80
2017-10-02T14:45:37.261Z,18.70
2017-10-02T14:48:04.856Z,18.70
2017-10-02T14:50:33.187Z,18.70
2017-10-02T14:53:00.845Z,18.60
2017-10-02T14:55:28.416Z,18.60
2017-10-02T14:57:56.024Z,18.60
2017-10-02T15:00:23.747Z,18.60
2017-10-02T15:02:51.313Z,18.60
2017-10-02T15:05:19.707Z,18.40
2017-10-02T15:07:47.311Z,18.40
2017-10-02T15:10:14.865Z,18.40
2017-10-02T15:12:42.473Z,18.30
2017-10-02T15:15:10.851Z,18.40
2017-10-02T15:17:39.211Z,18.40
2017-10-02T15:20:06.839Z,18.40
2017-10-02T15:22:34.556Z,18.40
2017-10-02T15:25:02.911Z,18.40
2017-10-02T15:27:30.542Z,18.40
2017-10-02T15:29:58.124Z,18.30
2017-10-02T15:32:25.751Z,18.40
2017-10-02T15:34:53.315Z,18.20
2017-10-02T15:37:20.906Z,18.30
2017-10-02T15:39:48.484Z,18.40
2017-10-02T15:42:17.047Z,18.30
2017-10-02T15:44:44.627Z,18.30
2017-10-02T15:47:12.962Z,18.30
2017-10-02T15:49:40.566Z,18.30
2017-10-02T15:52:08.123Z,18.30
2017-10-02T15:54:35.706Z,18.30
2017-10-02T15:57:03.328Z,18.30
2017-10-02T15:59:31.696Z,18.30
2017-10-02T16:01:59.347Z,18.30
2017-10-02T16:04:26.925Z,18.30
2017-10-02T16:06:55.291Z,18.30
2017-10-02T16:09:22.866Z,18.30
2017-10-02T16:11:51.231Z,18.20
2017-10-02T16:14:19.591Z,18.10
2017-10-02T16:16:47.275Z,18.10
2017-10-02T16:19:15.608Z,18.20
2017-10-02T16:21:43.240Z,18.20
2017-10-02T16:24:10.883Z,18.20
2017-10-02T16:26:38.456Z,18.10
2017-10-02T16:29:06.059Z,18.20
2017-10-02T16:31:33.631Z,18.10
2017-10-02T16:34:01.231Z,18.10
2017-10-02T16:36:28.796Z,18.00
2017-10-02T16:38:56.392Z,18.00
2017-10-02T16:41:23.955Z,18.00
2017-10-02T16:43:51.593Z,18.00
2017-10-02T16:46:19.174Z,18.00
2017-10-02T16:48:46.843Z,17.90
2017-10-02T16:51:14.432Z,17.90
2017-10-02T16:53:42.783Z,17.90
2017-10-02T16:56:10.376Z,17.90
2017-10-02T16:58:37.958Z,17.90
2017-10-02T17:01:05.543Z,17.80
2017-10-02T17:03:33.179Z,17.90
2017-10-02T17:06:00.775Z,17.80
2017-10-02T17:08:28.432Z,17.80
2017-10-02T17:10:56.007Z,17.90
2017-10-02T17:13:24.382Z,17.80
2017-10-02T17:15:52.740Z,17.80
2017-10-02T17:18:21.844Z,17.80
2017-10-02T17:20:49.411Z,17.70
2017-10-02T17:23:17.782Z,17.70
2017-10-02T17:25:46.221Z,17.70
2017-10-02T17:28:13.868Z,17.70
2017-10-02T17:30:41.507Z,17.70
2017-10-02T17:33:09.211Z,17.70
2017-10-02T17:35:36.811Z,17.70
2017-10-02T17:38:04.387Z,17.70
2017-10-02T17:40:32.036Z,17.60
2017-10-02T17:43:00.377Z,17.70
2017-10-02T17:45:28.080Z,17.60
2017-10-02T17:47:56.477Z,17.60
2017-10-02T17:50:24.105Z,17.70
2017-10-02T17:52:52.439Z,17.60
2017-10-02T17:55:20.030Z,17.60
2017-10-02T17:57:47.628Z,17.60
2017-10-02T18:00:15.229Z,17.60
2017-10-02T18:02:42.838Z,17.60
2017-10-02T18:05:10.414Z,17.60
2017-10-02T18:07:38.059Z,17.60
2017-10-02T18:10:05.664Z,17.60
2017-10-02T18:12:33.299Z,17.60
2017-10-02T18:15:00.964Z,17.60
2017-10-02T18:17:29.493Z,17.60
2017-10-02T18:19:57.869Z,17.60
2017-10-02T18:22:26.227Z,17.50
2017-10-02T18:24:55.323Z,17.50
2017-10-02T18:27:22.922Z,17.50
2017-10-02T18:29:50.527Z,17.50
2017-10-02T18:32:18.123Z,17.50
2017-10-02T18:34:46.448Z,17.40
2017-10-02T18:37:14.053Z,17.40
2017-10-02T18:39:42.420Z,17.40
2017-10-02T18:42:10.752Z,17.40
2017-10-02T18:44:38.319Z,17.40
2017-10-02T18:47:05.913Z,17.40
2017-10-02T18:49:33.505Z,17.40
2017-10-02T18:52:01.094Z,17.40
2017-10-02T18:54:28.656Z,17.40
2017-10-02T18:56:56.244Z,17.30
2017-10-02T18:59:25.332Z,17.30
2017-10-02T19:01:53.867Z,17.30
2017-10-02T19:04:21.440Z,17.30
2017-10-02T19:06:49.023Z,17.30
2017-10-02T19:09:16.608Z,17.30
2017-10-02T19:11:44.955Z,17.10
2017-10-02T19:14:12.687Z,17.10
2017-10-02T19:16:40.259Z,17.20
2017-10-02T19:19:07.869Z,17.00
2017-10-02T19:21:36.196Z,17.20
2017-10-02T19:24:03.782Z,17.20
2017-10-02T19:26:31.440Z,17.10
2017-10-02T19:28:59.007Z,17.20
2017-10-02T19:31:26.612Z,17.00
2017-10-02T19:33:54.200Z,17.10
2017-10-02T19:36:22.038Z,16.90
2017-10-02T19:38:49.614Z,17.00
2017-10-02T19:41:17.181Z,16.90
2017-10-02T19:43:44.779Z,17.10
2017-10-02T19:46:13.127Z,16.80
2017-10-02T19:48:40.719Z,16.80
2017-10-02T19:51:09.071Z,17.10
2017-10-02T19:53:36.675Z,17.10
2017-10-02T19:56:04.260Z,17.10
2017-10-02T19:58:31.890Z,17.20
2017-10-02T20:00:59.478Z,17.10
2017-10-02T20:03:27.047Z,17.10
2017-10-02T20:05:54.658Z,17.10
2017-10-02T20:08:22.267Z,17.10
2017-10-02T20:10:49.835Z,17.10
2017-10-02T20:13:17.403Z,17.10
2017-10-02T20:15:45.003Z,17.00
2017-10-02T20:18:12.577Z,17.00
2017-10-02T20:20:40.171Z,17.00
2017-10-02T20:23:09.247Z,17.00
2017-10-02T20:25:36.807Z,17.00
2017-10-02T20:28:04.448Z,17.00
2017-10-02T20:30:32.023Z,16.90
2017-10-02T20:32:59.634Z,17.00
2017-10-02T20:35:27.235Z,16.90
2017-10-02T20:37:54.876Z,16.80
2017-10-02T20:40:22.439Z,16.80
2017-10-02T20:42:50.039Z,16.80
2017-10-02T20:45:18.438Z,16.70
2017-10-02T20:47:46.812Z,16.60
2017-10-02T20:50:15.162Z,16.70
2017-10-02T20:52:42.740Z,16.70
2017-10-02T20:55:10.348Z,16.60
2017-10-02T20:57:37.924Z,16.50
2017-10-02T21:00:05.676Z,16.30
2017-10-02T21:02:33.247Z,16.10
2017-10-02T21:05:00.948Z,16.10
2017-10-02T21:07:29.280Z,15.90
2017-10-02T21:09:56.880Z,15.90
2017-10-02T21:12:24.489Z,15.80
2017-10-02T21:14:52.048Z,15.70
2017-10-02T21:17:19.652Z,15.80
2017-10-02T21:19:47.304Z,15.70
2017-10-02T21:22:14.964Z,15.80
2017-10-02T21:24:43.420Z,15.90
2017-10-02T21:27:11.014Z,15.90
2017-10-02T21:29:38.703Z,15.80
2017-10-02T21:32:06.276Z,15.90
2017-10-02T21:34:33.874Z,15.80
2017-10-02T21:37:03.064Z,15.70
2017-10-02T21:39:30.663Z,15.70
2017-10-02T21:41:58.998Z,16.00
2017-10-02T21:44:26.608Z,16.00
2017-10-02T21:46:54.176Z,16.00
2017-10-02T21:49:21.760Z,16.10
2017-10-02T21:51:49.331Z,16.00
2017-10-02T21:54:16.976Z,15.90
2017-10-02T21:56:44.582Z,16.10
2017-10-02T21:59:12.919Z,16.00
2017-10-02T22:01:40.519Z,16.00
2017-10-02T22:04:08.959Z,16.10
2017-10-02T22:06:36.531Z,16.00
2017-10-02T22:09:04.096Z,16.00
2017-10-02T22:11:31.745Z,15.90
2017-10-02T22:13:59.312Z,15.90
2017-10-02T22:16:26.888Z,15.90
2017-10-02T22:18:55.283Z,15.80
2017-10-02T22:21:23.688Z,15.90
2017-10-02T22:23:51.451Z,15.90
2017-10-02T22:26:19.063Z,15.90
2017-10-02T22:28:46.632Z,15.90
2017-10-02T22:31:14.966Z,15.80
2017-10-02T22:33:42.576Z,15.80
2017-10-02T22:36:10.920Z,15.80
2017-10-02T22:38:38.519Z,15.80
2017-10-02T22:41:06.100Z,15.80
2017-10-02T22:43:33.695Z,15.70
2017-10-02T22:46:01.261Z,15.60
2017-10-02T22:48:29.639Z,15.80
2017-10-02T22:50:57.202Z,15.70
2017-10-02T22:53:24.766Z,15.80
2017-10-02T22:55:53.120Z,15.80
2017-10-02T22:58:20.699Z,15.80
2017-10-02T23:00:49.118Z,15.80
2017-10-02T23:03:16.696Z,15.70
2017-10-02T23:05:44.248Z,15.60
2017-10-02T23:08:11.848Z,15.40
2017-10-02T23:10:39.442Z,15.40
2017-10-02T23:13:07.000Z,15.40
2017-10-02T23:15:34.589Z,15.30
2017-10-02T23:18:02.154Z,15.30
2017-10-02T23:20:29.751Z,15.30
2017-10-02T23:22:58.089Z,15.40
2017-10-02T23:25:25.767Z,15.40
2017-10-02T23:27:53.343Z,15.40
2017-10-02T23:30:20.924Z,15.30
2017-10-02T23:32:48.713Z,15.40
2017-10-02T23:35:16.306Z,15.30
2017-10-02T23:37:44.667Z,15.50
2017-10-02T23:40:12.264Z,15.50
2017-10-02T23:42:40.627Z,15.40
2017-10-02T23:45:08.178Z,15.30
2017-10-02T23:47:35.763Z,15.50
2017-10-02T23:50:04.087Z,15.40
2017-10-02T23:52:31.690Z,15.40
2017-10-02T23:55:00.024Z,15.30
2017-10-02T23:57:27.582Z,15.30
2017-10-02T23:59:55.163Z,15.30
